sensor_id;sensor_type;location;lat;lon;timestamp;P1;durP1;ratioP1;P2;durP2;ratioP2
17520;SDS011;8878;-33.370;-70.552;2022-10-30T00:01:50;2.55;;;0.40;;
17520;SDS011;8878;-33.370;-70.552;2022-10-30T00:04:20;0.10;;;0.10;;
17520;SDS011;8878;-33.370;-70.552;2022-10-30T00:06:51;1.45;;;0.80;;
17520;SDS011;8878;-33.370;-70.552;2022-10-30T00:09:20;0.65;;;0.30;;
17520;SDS011;8878;-33.370;-70.552;2022-10-30T00:11:50;0.35;;;0.35;;
17520;SDS011;8878;-33.370;-70.552;2022-10-30T00:14:19;3.10;;;0.80;;
17520;SDS011;8878;-33.370;-70.552;2022-10-30T00:16:49;0.47;;;0.47;;
17520;SDS011;8878;-33.370;-70.552;2022-10-30T00:19:18;0.17;;;0.15;;
17520;SDS011;8878;-33.370;-70.552;2022-10-30T00:21:47;0.63;;;0.57;;
17520;SDS011;8878;-33.370;-70.552;2022-10-30T00:24:19;0.10;;;0.10;;
17520;SDS011;8878;-33.370;-70.552;2022-10-30T00:26:48;0.38;;;0.15;;
17520;SDS011;8878;-33.370;-70.552;2022-10-30T00:29:18;1.23;;;0.40;;
17520;SDS011;8878;-33.370;-70.552;2022-10-30T00:31:48;0.85;;;0.30;;
17520;SDS011;8878;-33.370;-70.552;2022-10-30T00:34:17;0.03;;;0.03;;
17520;SDS011;8878;-33.370;-70.552;2022-10-30T00:36:47;0.30;;;0.20;;
17520;SDS011;8878;-33.370;-70.552;2022-10-30T00:39:18;0.63;;;0.30;;
17520;SDS011;8878;-33.370;-70.552;2022-10-30T00:41:48;0.40;;;0.15;;
17520;SDS011;8878;-33.370;-70.552;2022-10-30T00:44:34;0.20;;;0.20;;
17520;SDS011;8878;-33.370;-70.552;2022-10-30T00:47:05;0.10;;;0.10;;
17520;SDS011;8878;-33.370;-70.552;2022-10-30T00:49:41;1.80;;;0.40;;
17520;SDS011;8878;-33.370;-70.552;2022-10-30T00:52:18;0.40;;;0.20;;
17520;SDS011;8878;-33.370;-70.552;2022-10-30T00:54:52;1.85;;;0.30;;
17520;SDS011;8878;-33.370;-70.552;2022-10-30T00:57:23;3.45;;;0.40;;
17520;SDS011;8878;-33.370;-70.552;2022-10-30T00:59:53;0.38;;;0.28;;
17520;SDS011;8878;-33.370;-70.552;2022-10-30T01:02:23;0.17;;;0.15;;
17520;SDS011;8878;-33.370;-70.552;2022-10-30T01:04:52;0.38;;;0.38;;
17520;SDS011;8878;-33.370;-70.552;2022-10-30T01:07:24;9.52;;;0.52;;
17520;SDS011;8878;-33.370;-70.552;2022-10-30T01:09:55;0.73;;;0.25;;
17520;SDS011;8878;-33.370;-70.552;2022-10-30T01:12:25;0.35;;;0.20;;
17520;SDS011;8878;-33.370;-70.552;2022-10-30T01:14:55;0.70;;;0.20;;
17520;SDS011;8878;-33.370;-70.552;2022-10-30T01:17:33;0.17;;;0.17;;
17520;SDS011;8878;-33.370;-70.552;2022-10-30T01:20:21;0.38;;;0.20;;
17520;SDS011;8878;-33.370;-70.552;2022-10-30T01:23:15;0.40;;;0.40;;
17520;SDS011;8878;-33.370;-70.552;2022-10-30T01:26:00;0.20;;;0.17;;
17520;SDS011;8878;-33.370;-70.552;2022-10-30T01:28:42;0.30;;;0.30;;
17520;SDS011;8878;-33.370;-70.552;2022-10-30T01:31:30;0.70;;;0.20;;
17520;SDS011;8878;-33.370;-70.552;2022-10-30T01:34:11;0.10;;;0.10;;
17520;SDS011;8878;-33.370;-70.552;2022-10-30T01:36:49;0.20;;;0.20;;
17520;SDS011;8878;-33.370;-70.552;2022-10-30T01:39:24;0.30;;;0.30;;
17520;SDS011;8878;-33.370;-70.552;2022-10-30T01:41:58;0.30;;;0.15;;
17520;SDS011;8878;-33.370;-70.552;2022-10-30T01:44:28;0.03;;;0.03;;
17520;SDS011;8878;-33.370;-70.552;2022-10-30T01:47:02;0.10;;;0.10;;
17520;SDS011;8878;-33.370;-70.552;2022-10-30T01:52:45;0.08;;;0.08;;
17520;SDS011;8878;-33.370;-70.552;2022-10-30T01:55:26;1.00;;;0.10;;
17520;SDS011;8878;-33.370;-70.552;2022-10-30T01:58:07;0.20;;;0.10;;
17520;SDS011;8878;-33.370;-70.552;2022-10-30T02:00:44;0.35;;;0.30;;
17520;SDS011;8878;-33.370;-70.552;2022-10-30T02:03:20;2.50;;;0.73;;
17520;SDS011;8878;-33.370;-70.552;2022-10-30T02:05:49;0.25;;;0.20;;
17520;SDS011;8878;-33.370;-70.552;2022-10-30T02:08:20;2.65;;;0.38;;
17520;SDS011;8878;-33.370;-70.552;2022-10-30T02:10:50;0.17;;;0.17;;
17520;SDS011;8878;-33.370;-70.552;2022-10-30T02:13:22;0.15;;;0.15;;
17520;SDS011;8878;-33.370;-70.552;2022-10-30T02:15:52;0.20;;;0.20;;
17520;SDS011;8878;-33.370;-70.552;2022-10-30T02:18:22;1.15;;;0.30;;
17520;SDS011;8878;-33.370;-70.552;2022-10-30T02:20:54;0.20;;;0.20;;
17520;SDS011;8878;-33.370;-70.552;2022-10-30T02:23:24;0.10;;;0.10;;
17520;SDS011;8878;-33.370;-70.552;2022-10-30T02:25:54;0.20;;;0.20;;
17520;SDS011;8878;-33.370;-70.552;2022-10-30T02:28:23;0.30;;;0.30;;
17520;SDS011;8878;-33.370;-70.552;2022-10-30T02:30:53;0.55;;;0.30;;
17520;SDS011;8878;-33.370;-70.552;2022-10-30T02:33:22;0.40;;;0.22;;
17520;SDS011;8878;-33.370;-70.552;2022-10-30T02:35:54;0.25;;;0.25;;
17520;SDS011;8878;-33.370;-70.552;2022-10-30T02:38:23;0.00;;;0.00;;
17520;SDS011;8878;-33.370;-70.552;2022-10-30T02:40:53;0.10;;;0.10;;
17520;SDS011;8878;-33.370;-70.552;2022-10-30T02:43:24;0.05;;;0.05;;
17520;SDS011;8878;-33.370;-70.552;2022-10-30T02:45:53;1.00;;;0.20;;
17520;SDS011;8878;-33.370;-70.552;2022-10-30T02:48:23;1.45;;;0.10;;
17520;SDS011;8878;-33.370;-70.552;2022-10-30T02:50:52;0.25;;;0.25;;
17520;SDS011;8878;-33.370;-70.552;2022-10-30T02:53:25;0.10;;;0.10;;
17520;SDS011;8878;-33.370;-70.552;2022-10-30T02:55:55;0.00;;;0.00;;
17520;SDS011;8878;-33.370;-70.552;2022-10-30T02:58:30;0.55;;;0.55;;
17520;SDS011;8878;-33.370;-70.552;2022-10-30T03:01:03;0.32;;;0.13;;
17520;SDS011;8878;-33.370;-70.552;2022-10-30T03:03:34;0.28;;;0.28;;
17520;SDS011;8878;-33.370;-70.552;2022-10-30T03:06:06;0.10;;;0.10;;
17520;SDS011;8878;-33.370;-70.552;2022-10-30T03:08:37;0.70;;;0.52;;
17520;SDS011;8878;-33.370;-70.552;2022-10-30T03:11:07;1.67;;;0.10;;
17520;SDS011;8878;-33.370;-70.552;2022-10-30T03:13:38;0.63;;;0.30;;
17520;SDS011;8878;-33.370;-70.552;2022-10-30T03:16:08;1.35;;;0.28;;
17520;SDS011;8878;-33.370;-70.552;2022-10-30T03:18:39;0.00;;;0.00;;
17520;SDS011;8878;-33.370;-70.552;2022-10-30T03:21:12;0.10;;;0.10;;
17520;SDS011;8878;-33.370;-70.552;2022-10-30T03:23:42;0.00;;;0.00;;
17520;SDS011;8878;-33.370;-70.552;2022-10-30T03:26:12;0.10;;;0.10;;
17520;SDS011;8878;-33.370;-70.552;2022-10-30T03:28:41;0.00;;;0.00;;
17520;SDS011;8878;-33.370;-70.552;2022-10-30T03:31:12;0.00;;;0.00;;
17520;SDS011;8878;-33.370;-70.552;2022-10-30T03:33:42;0.75;;;0.20;;
17520;SDS011;8878;-33.370;-70.552;2022-10-30T03:36:14;0.00;;;0.00;;
17520;SDS011;8878;-33.370;-70.552;2022-10-30T03:38:43;4.00;;;0.20;;
17520;SDS011;8878;-33.370;-70.552;2022-10-30T03:41:12;0.10;;;0.10;;
17520;SDS011;8878;-33.370;-70.552;2022-10-30T03:43:42;1.65;;;0.35;;
17520;SDS011;8878;-33.370;-70.552;2022-10-30T03:46:12;0.50;;;0.10;;
17520;SDS011;8878;-33.370;-70.552;2022-10-30T03:48:41;0.00;;;0.00;;
17520;SDS011;8878;-33.370;-70.552;2022-10-30T03:51:11;0.05;;;0.05;;
17520;SDS011;8878;-33.370;-70.552;2022-10-30T03:53:42;0.17;;;0.10;;
17520;SDS011;8878;-33.370;-70.552;2022-10-30T03:56:11;0.00;;;0.00;;
17520;SDS011;8878;-33.370;-70.552;2022-10-30T03:58:40;4.65;;;0.20;;
17520;SDS011;8878;-33.370;-70.552;2022-10-30T04:01:10;0.05;;;0.05;;
17520;SDS011;8878;-33.370;-70.552;2022-10-30T04:03:39;0.20;;;0.20;;
17520;SDS011;8878;-33.370;-70.552;2022-10-30T04:06:08;1.40;;;0.55;;
17520;SDS011;8878;-33.370;-70.552;2022-10-30T04:08:39;0.28;;;0.28;;
17520;SDS011;8878;-33.370;-70.552;2022-10-30T04:11:09;0.90;;;0.20;;
17520;SDS011;8878;-33.370;-70.552;2022-10-30T04:13:38;0.35;;;0.35;;
17520;SDS011;8878;-33.370;-70.552;2022-10-30T04:16:08;0.68;;;0.40;;
17520;SDS011;8878;-33.370;-70.552;2022-10-30T04:18:37;1.25;;;0.35;;
17520;SDS011;8878;-33.370;-70.552;2022-10-30T04:21:07;8.35;;;0.57;;
17520;SDS011;8878;-33.370;-70.552;2022-10-30T04:23:36;0.47;;;0.47;;
17520;SDS011;8878;-33.370;-70.552;2022-10-30T04:26:07;2.83;;;0.50;;
17520;SDS011;8878;-33.370;-70.552;2022-10-30T04:28:37;2.38;;;0.30;;
17520;SDS011;8878;-33.370;-70.552;2022-10-30T04:31:06;0.43;;;0.40;;
17520;SDS011;8878;-33.370;-70.552;2022-10-30T04:33:36;0.10;;;0.10;;
17520;SDS011;8878;-33.370;-70.552;2022-10-30T04:36:05;2.65;;;0.45;;
17520;SDS011;8878;-33.370;-70.552;2022-10-30T04:38:35;0.00;;;0.00;;
17520;SDS011;8878;-33.370;-70.552;2022-10-30T04:41:07;1.67;;;0.35;;
17520;SDS011;8878;-33.370;-70.552;2022-10-30T04:43:37;0.20;;;0.20;;
17520;SDS011;8878;-33.370;-70.552;2022-10-30T04:46:06;4.40;;;0.70;;
17520;SDS011;8878;-33.370;-70.552;2022-10-30T04:48:37;0.30;;;0.17;;
17520;SDS011;8878;-33.370;-70.552;2022-10-30T04:51:06;1.33;;;0.22;;
17520;SDS011;8878;-33.370;-70.552;2022-10-30T04:53:36;6.05;;;0.22;;
17520;SDS011;8878;-33.370;-70.552;2022-10-30T04:56:09;3.03;;;0.32;;
17520;SDS011;8878;-33.370;-70.552;2022-10-30T04:58:38;0.45;;;0.30;;
17520;SDS011;8878;-33.370;-70.552;2022-10-30T05:01:08;0.35;;;0.35;;
17520;SDS011;8878;-33.370;-70.552;2022-10-30T05:03:38;0.20;;;0.20;;
17520;SDS011;8878;-33.370;-70.552;2022-10-30T05:06:20;0.20;;;0.20;;
17520;SDS011;8878;-33.370;-70.552;2022-10-30T05:08:51;7.53;;;0.40;;
17520;SDS011;8878;-33.370;-70.552;2022-10-30T05:11:24;1.40;;;0.45;;
17520;SDS011;8878;-33.370;-70.552;2022-10-30T05:13:54;3.50;;;0.32;;
17520;SDS011;8878;-33.370;-70.552;2022-10-30T05:16:23;2.35;;;0.70;;
17520;SDS011;8878;-33.370;-70.552;2022-10-30T05:18:53;0.87;;;0.87;;
17520;SDS011;8878;-33.370;-70.552;2022-10-30T05:21:22;0.20;;;0.20;;
17520;SDS011;8878;-33.370;-70.552;2022-10-30T05:23:51;2.85;;;0.77;;
17520;SDS011;8878;-33.370;-70.552;2022-10-30T05:26:21;0.40;;;0.40;;
17520;SDS011;8878;-33.370;-70.552;2022-10-30T05:28:52;0.30;;;0.20;;
17520;SDS011;8878;-33.370;-70.552;2022-10-30T05:31:22;0.50;;;0.20;;
17520;SDS011;8878;-33.370;-70.552;2022-10-30T05:33:51;0.67;;;0.30;;
17520;SDS011;8878;-33.370;-70.552;2022-10-30T05:36:21;0.43;;;0.43;;
17520;SDS011;8878;-33.370;-70.552;2022-10-30T05:38:50;0.20;;;0.20;;
17520;SDS011;8878;-33.370;-70.552;2022-10-30T05:41:20;0.47;;;0.25;;
17520;SDS011;8878;-33.370;-70.552;2022-10-30T05:43:50;0.75;;;0.70;;
17520;SDS011;8878;-33.370;-70.552;2022-10-30T05:46:21;0.47;;;0.40;;
17520;SDS011;8878;-33.370;-70.552;2022-10-30T05:48:51;0.47;;;0.45;;
17520;SDS011;8878;-33.370;-70.552;2022-10-30T05:51:20;9.02;;;0.80;;
17520;SDS011;8878;-33.370;-70.552;2022-10-30T05:53:50;0.10;;;0.10;;
17520;SDS011;8878;-33.370;-70.552;2022-10-30T05:56:19;0.20;;;0.20;;
17520;SDS011;8878;-33.370;-70.552;2022-10-30T05:58:49;0.20;;;0.20;;
17520;SDS011;8878;-33.370;-70.552;2022-10-30T06:01:20;2.23;;;0.40;;
17520;SDS011;8878;-33.370;-70.552;2022-10-30T06:03:49;0.43;;;0.32;;
17520;SDS011;8878;-33.370;-70.552;2022-10-30T06:06:19;0.75;;;0.40;;
17520;SDS011;8878;-33.370;-70.552;2022-10-30T06:08:48;0.30;;;0.30;;
17520;SDS011;8878;-33.370;-70.552;2022-10-30T06:11:17;0.77;;;0.60;;
17520;SDS011;8878;-33.370;-70.552;2022-10-30T06:13:47;0.43;;;0.43;;
17520;SDS011;8878;-33.370;-70.552;2022-10-30T06:16:16;1.90;;;0.57;;
17520;SDS011;8878;-33.370;-70.552;2022-10-30T06:18:48;0.40;;;0.22;;
17520;SDS011;8878;-33.370;-70.552;2022-10-30T06:21:17;0.23;;;0.23;;
17520;SDS011;8878;-33.370;-70.552;2022-10-30T06:23:47;0.10;;;0.10;;
17520;SDS011;8878;-33.370;-70.552;2022-10-30T06:26:16;0.43;;;0.43;;
17520;SDS011;8878;-33.370;-70.552;2022-10-30T06:28:46;2.63;;;0.52;;
17520;SDS011;8878;-33.370;-70.552;2022-10-30T06:31:15;1.13;;;0.22;;
17520;SDS011;8878;-33.370;-70.552;2022-10-30T06:33:44;2.38;;;0.55;;
17520;SDS011;8878;-33.370;-70.552;2022-10-30T06:36:15;0.40;;;0.40;;
17520;SDS011;8878;-33.370;-70.552;2022-10-30T06:38:45;4.38;;;0.77;;
17520;SDS011;8878;-33.370;-70.552;2022-10-30T06:41:14;1.25;;;0.90;;
17520;SDS011;8878;-33.370;-70.552;2022-10-30T06:43:43;0.55;;;0.45;;
17520;SDS011;8878;-33.370;-70.552;2022-10-30T06:46:13;1.02;;;1.02;;
17520;SDS011;8878;-33.370;-70.552;2022-10-30T06:48:42;0.95;;;0.52;;
17520;SDS011;8878;-33.370;-70.552;2022-10-30T06:51:14;0.55;;;0.35;;
17520;SDS011;8878;-33.370;-70.552;2022-10-30T06:53:44;3.50;;;1.47;;
17520;SDS011;8878;-33.370;-70.552;2022-10-30T06:56:14;1.73;;;0.70;;
17520;SDS011;8878;-33.370;-70.552;2022-10-30T06:58:43;1.43;;;0.90;;
17520;SDS011;8878;-33.370;-70.552;2022-10-30T07:01:13;0.83;;;0.70;;
17520;SDS011;8878;-33.370;-70.552;2022-10-30T07:03:42;0.20;;;0.20;;
17520;SDS011;8878;-33.370;-70.552;2022-10-30T07:06:12;0.50;;;0.47;;
17520;SDS011;8878;-33.370;-70.552;2022-10-30T07:08:43;0.25;;;0.25;;
17520;SDS011;8878;-33.370;-70.552;2022-10-30T07:11:13;0.63;;;0.30;;
17520;SDS011;8878;-33.370;-70.552;2022-10-30T07:13:44;1.17;;;0.55;;
17520;SDS011;8878;-33.370;-70.552;2022-10-30T07:16:14;0.37;;;0.37;;
17520;SDS011;8878;-33.370;-70.552;2022-10-30T07:18:43;0.53;;;0.50;;
17520;SDS011;8878;-33.370;-70.552;2022-10-30T07:21:14;0.50;;;0.50;;
17520;SDS011;8878;-33.370;-70.552;2022-10-30T07:23:44;0.67;;;0.47;;
17520;SDS011;8878;-33.370;-70.552;2022-10-30T07:26:13;0.57;;;0.57;;
17520;SDS011;8878;-33.370;-70.552;2022-10-30T07:28:42;0.40;;;0.40;;
17520;SDS011;8878;-33.370;-70.552;2022-10-30T07:31:12;2.47;;;0.60;;
17520;SDS011;8878;-33.370;-70.552;2022-10-30T07:33:41;1.10;;;0.60;;
17520;SDS011;8878;-33.370;-70.552;2022-10-30T07:36:11;0.70;;;0.67;;
17520;SDS011;8878;-33.370;-70.552;2022-10-30T07:38:42;0.73;;;0.47;;
17520;SDS011;8878;-33.370;-70.552;2022-10-30T07:41:12;1.80;;;0.47;;
17520;SDS011;8878;-33.370;-70.552;2022-10-30T07:43:41;2.10;;;0.83;;
17520;SDS011;8878;-33.370;-70.552;2022-10-30T07:46:10;1.27;;;0.90;;
17520;SDS011;8878;-33.370;-70.552;2022-10-30T07:48:41;0.33;;;0.33;;
17520;SDS011;8878;-33.370;-70.552;2022-10-30T07:51:12;0.83;;;0.80;;
17520;SDS011;8878;-33.370;-70.552;2022-10-30T07:53:43;0.83;;;0.83;;
17520;SDS011;8878;-33.370;-70.552;2022-10-30T07:56:13;3.30;;;0.93;;
17520;SDS011;8878;-33.370;-70.552;2022-10-30T07:58:42;0.60;;;0.60;;
17520;SDS011;8878;-33.370;-70.552;2022-10-30T08:01:12;0.40;;;0.30;;
17520;SDS011;8878;-33.370;-70.552;2022-10-30T08:03:41;0.80;;;0.77;;
17520;SDS011;8878;-33.370;-70.552;2022-10-30T08:06:10;0.40;;;0.40;;
17520;SDS011;8878;-33.370;-70.552;2022-10-30T08:08:41;0.60;;;0.60;;
17520;SDS011;8878;-33.370;-70.552;2022-10-30T08:11:12;1.60;;;0.97;;
17520;SDS011;8878;-33.370;-70.552;2022-10-30T08:13:41;0.50;;;0.50;;
17520;SDS011;8878;-33.370;-70.552;2022-10-30T08:16:11;3.40;;;0.97;;
17520;SDS011;8878;-33.370;-70.552;2022-10-30T08:18:42;0.63;;;0.40;;
17520;SDS011;8878;-33.370;-70.552;2022-10-30T08:21:11;0.83;;;0.80;;
17520;SDS011;8878;-33.370;-70.552;2022-10-30T08:23:41;3.80;;;0.68;;
17520;SDS011;8878;-33.370;-70.552;2022-10-30T08:26:12;0.30;;;0.30;;
17520;SDS011;8878;-33.370;-70.552;2022-10-30T08:28:42;0.20;;;0.20;;
17520;SDS011;8878;-33.370;-70.552;2022-10-30T08:31:12;0.60;;;0.50;;
17520;SDS011;8878;-33.370;-70.552;2022-10-30T08:33:42;1.77;;;0.60;;
17520;SDS011;8878;-33.370;-70.552;2022-10-30T08:36:11;0.50;;;0.50;;
17520;SDS011;8878;-33.370;-70.552;2022-10-30T08:38:40;1.50;;;0.97;;
17520;SDS011;8878;-33.370;-70.552;2022-10-30T08:41:12;0.97;;;0.53;;
17520;SDS011;8878;-33.370;-70.552;2022-10-30T08:43:41;0.37;;;0.37;;
17520;SDS011;8878;-33.370;-70.552;2022-10-30T08:46:11;0.40;;;0.40;;
17520;SDS011;8878;-33.370;-70.552;2022-10-30T08:48:40;0.40;;;0.40;;
17520;SDS011;8878;-33.370;-70.552;2022-10-30T08:51:10;1.50;;;0.50;;
17520;SDS011;8878;-33.370;-70.552;2022-10-30T08:53:39;0.23;;;0.23;;
17520;SDS011;8878;-33.370;-70.552;2022-10-30T08:56:10;0.70;;;0.63;;
17520;SDS011;8878;-33.370;-70.552;2022-10-30T08:58:40;1.80;;;0.53;;
17520;SDS011;8878;-33.370;-70.552;2022-10-30T09:01:09;1.23;;;0.83;;
17520;SDS011;8878;-33.370;-70.552;2022-10-30T09:03:39;0.40;;;0.40;;
17520;SDS011;8878;-33.370;-70.552;2022-10-30T09:06:09;0.37;;;0.37;;
17520;SDS011;8878;-33.370;-70.552;2022-10-30T09:08:39;0.40;;;0.40;;
17520;SDS011;8878;-33.370;-70.552;2022-10-30T09:11:08;0.83;;;0.47;;
17520;SDS011;8878;-33.370;-70.552;2022-10-30T09:13:40;0.77;;;0.77;;
17520;SDS011;8878;-33.370;-70.552;2022-10-30T09:16:09;0.40;;;0.40;;
17520;SDS011;8878;-33.370;-70.552;2022-10-30T09:18:40;10.20;;;0.60;;
17520;SDS011;8878;-33.370;-70.552;2022-10-30T09:21:09;5.83;;;1.40;;
17520;SDS011;8878;-33.370;-70.552;2022-10-30T09:23:40;0.83;;;0.37;;
17520;SDS011;8878;-33.370;-70.552;2022-10-30T09:26:12;0.63;;;0.63;;
17520;SDS011;8878;-33.370;-70.552;2022-10-30T09:28:42;0.30;;;0.23;;
17520;SDS011;8878;-33.370;-70.552;2022-10-30T09:31:12;0.70;;;0.70;;
17520;SDS011;8878;-33.370;-70.552;2022-10-30T09:33:42;9.53;;;0.67;;
17520;SDS011;8878;-33.370;-70.552;2022-10-30T09:36:11;0.40;;;0.30;;
17520;SDS011;8878;-33.370;-70.552;2022-10-30T09:38:41;0.60;;;0.60;;
17520;SDS011;8878;-33.370;-70.552;2022-10-30T09:41:16;0.93;;;0.93;;
17520;SDS011;8878;-33.370;-70.552;2022-10-30T09:44:05;1.20;;;0.87;;
17520;SDS011;8878;-33.370;-70.552;2022-10-30T09:46:51;0.70;;;0.70;;
17520;SDS011;8878;-33.370;-70.552;2022-10-30T09:49:46;2.70;;;1.50;;
17520;SDS011;8878;-33.370;-70.552;2022-10-30T09:52:30;1.70;;;1.60;;
17520;SDS011;8878;-33.370;-70.552;2022-10-30T09:55:19;1.80;;;1.70;;
17520;SDS011;8878;-33.370;-70.552;2022-10-30T09:58:00;1.50;;;1.27;;
17520;SDS011;8878;-33.370;-70.552;2022-10-30T10:00:39;3.13;;;1.10;;
17520;SDS011;8878;-33.370;-70.552;2022-10-30T10:03:19;1.47;;;1.37;;
17520;SDS011;8878;-33.370;-70.552;2022-10-30T10:05:57;2.17;;;1.97;;
17520;SDS011;8878;-33.370;-70.552;2022-10-30T10:08:30;2.00;;;1.80;;
17520;SDS011;8878;-33.370;-70.552;2022-10-30T10:11:02;1.87;;;1.53;;
17520;SDS011;8878;-33.370;-70.552;2022-10-30T10:13:40;1.40;;;1.30;;
17520;SDS011;8878;-33.370;-70.552;2022-10-30T10:16:16;1.73;;;1.63;;
17520;SDS011;8878;-33.370;-70.552;2022-10-30T10:18:48;2.53;;;1.30;;
17520;SDS011;8878;-33.370;-70.552;2022-10-30T10:21:24;4.33;;;1.97;;
17520;SDS011;8878;-33.370;-70.552;2022-10-30T10:23:54;1.30;;;1.10;;
17520;SDS011;8878;-33.370;-70.552;2022-10-30T10:26:27;1.43;;;1.33;;
17520;SDS011;8878;-33.370;-70.552;2022-10-30T10:29:02;3.23;;;1.57;;
17520;SDS011;8878;-33.370;-70.552;2022-10-30T10:31:54;1.30;;;1.20;;
17520;SDS011;8878;-33.370;-70.552;2022-10-30T10:34:44;3.47;;;1.47;;
17520;SDS011;8878;-33.370;-70.552;2022-10-30T10:37:28;0.83;;;0.83;;
17520;SDS011;8878;-33.370;-70.552;2022-10-30T10:40:19;2.00;;;1.37;;
17520;SDS011;8878;-33.370;-70.552;2022-10-30T10:43:00;0.73;;;0.70;;
17520;SDS011;8878;-33.370;-70.552;2022-10-30T10:45:42;0.50;;;0.50;;
17520;SDS011;8878;-33.370;-70.552;2022-10-30T10:48:29;1.23;;;1.13;;
17520;SDS011;8878;-33.370;-70.552;2022-10-30T10:51:11;1.50;;;0.77;;
17520;SDS011;8878;-33.370;-70.552;2022-10-30T10:53:45;0.97;;;0.97;;
17520;SDS011;8878;-33.370;-70.552;2022-10-30T10:56:21;1.27;;;1.17;;
17520;SDS011;8878;-33.370;-70.552;2022-10-30T10:58:56;1.50;;;1.10;;
17520;SDS011;8878;-33.370;-70.552;2022-10-30T11:01:31;1.40;;;1.23;;
17520;SDS011;8878;-33.370;-70.552;2022-10-30T11:04:07;0.77;;;0.77;;
17520;SDS011;8878;-33.370;-70.552;2022-10-30T11:06:42;1.03;;;1.03;;
17520;SDS011;8878;-33.370;-70.552;2022-10-30T11:09:16;2.83;;;0.80;;
17520;SDS011;8878;-33.370;-70.552;2022-10-30T11:11:48;0.80;;;0.60;;
17520;SDS011;8878;-33.370;-70.552;2022-10-30T11:14:18;4.63;;;0.63;;
17520;SDS011;8878;-33.370;-70.552;2022-10-30T11:16:53;0.30;;;0.30;;
17520;SDS011;8878;-33.370;-70.552;2022-10-30T11:19:30;0.40;;;0.40;;
17520;SDS011;8878;-33.370;-70.552;2022-10-30T11:21:59;0.40;;;0.40;;
17520;SDS011;8878;-33.370;-70.552;2022-10-30T11:24:30;0.87;;;0.40;;
17520;SDS011;8878;-33.370;-70.552;2022-10-30T11:27:15;0.10;;;0.10;;
17520;SDS011;8878;-33.370;-70.552;2022-10-30T11:29:50;0.10;;;0.10;;
17520;SDS011;8878;-33.370;-70.552;2022-10-30T11:32:25;0.20;;;0.20;;
17520;SDS011;8878;-33.370;-70.552;2022-10-30T11:35:07;0.07;;;0.07;;
17520;SDS011;8878;-33.370;-70.552;2022-10-30T11:37:41;0.17;;;0.17;;
17520;SDS011;8878;-33.370;-70.552;2022-10-30T11:40:16;0.10;;;0.10;;
17520;SDS011;8878;-33.370;-70.552;2022-10-30T11:42:49;0.10;;;0.10;;
17520;SDS011;8878;-33.370;-70.552;2022-10-30T11:45:24;0.20;;;0.20;;
17520;SDS011;8878;-33.370;-70.552;2022-10-30T11:47:56;0.43;;;0.43;;
17520;SDS011;8878;-33.370;-70.552;2022-10-30T11:50:27;0.30;;;0.30;;
17520;SDS011;8878;-33.370;-70.552;2022-10-30T11:52:59;0.10;;;0.10;;
17520;SDS011;8878;-33.370;-70.552;2022-10-30T11:55:36;8.27;;;0.73;;
17520;SDS011;8878;-33.370;-70.552;2022-10-30T11:58:19;2.03;;;0.40;;
17520;SDS011;8878;-33.370;-70.552;2022-10-30T12:01:02;0.13;;;0.10;;
17520;SDS011;8878;-33.370;-70.552;2022-10-30T12:03:35;0.20;;;0.20;;
17520;SDS011;8878;-33.370;-70.552;2022-10-30T12:06:06;0.20;;;0.20;;
17520;SDS011;8878;-33.370;-70.552;2022-10-30T12:08:37;0.13;;;0.13;;
17520;SDS011;8878;-33.370;-70.552;2022-10-30T12:11:07;0.03;;;0.03;;
17520;SDS011;8878;-33.370;-70.552;2022-10-30T12:13:36;0.20;;;0.20;;
17520;SDS011;8878;-33.370;-70.552;2022-10-30T12:16:09;0.10;;;0.10;;
17520;SDS011;8878;-33.370;-70.552;2022-10-30T12:18:51;0.23;;;0.20;;
17520;SDS011;8878;-33.370;-70.552;2022-10-30T12:21:25;0.30;;;0.30;;
17520;SDS011;8878;-33.370;-70.552;2022-10-30T12:23:57;1.60;;;0.30;;
17520;SDS011;8878;-33.370;-70.552;2022-10-30T12:26:31;0.10;;;0.10;;
17520;SDS011;8878;-33.370;-70.552;2022-10-30T12:29:05;1.10;;;0.50;;
17520;SDS011;8878;-33.370;-70.552;2022-10-30T12:31:43;1.30;;;0.30;;
17520;SDS011;8878;-33.370;-70.552;2022-10-30T12:34:25;0.23;;;0.23;;
17520;SDS011;8878;-33.370;-70.552;2022-10-30T12:37:07;0.20;;;0.20;;
17520;SDS011;8878;-33.370;-70.552;2022-10-30T12:39:45;10.40;;;0.50;;
17520;SDS011;8878;-33.370;-70.552;2022-10-30T12:42:20;0.17;;;0.17;;
17520;SDS011;8878;-33.370;-70.552;2022-10-30T12:44:51;0.20;;;0.20;;
17520;SDS011;8878;-33.370;-70.552;2022-10-30T12:47:30;0.20;;;0.20;;
17520;SDS011;8878;-33.370;-70.552;2022-10-30T12:50:13;0.20;;;0.20;;
17520;SDS011;8878;-33.370;-70.552;2022-10-30T12:52:50;0.40;;;0.40;;
17520;SDS011;8878;-33.370;-70.552;2022-10-30T12:55:27;0.30;;;0.30;;
17520;SDS011;8878;-33.370;-70.552;2022-10-30T12:58:17;0.40;;;0.20;;
17520;SDS011;8878;-33.370;-70.552;2022-10-30T13:00:53;0.10;;;0.10;;
17520;SDS011;8878;-33.370;-70.552;2022-10-30T13:03:29;0.60;;;0.27;;
17520;SDS011;8878;-33.370;-70.552;2022-10-30T13:06:08;0.20;;;0.20;;
17520;SDS011;8878;-33.370;-70.552;2022-10-30T13:08:45;0.47;;;0.27;;
17520;SDS011;8878;-33.370;-70.552;2022-10-30T13:11:26;0.20;;;0.20;;
17520;SDS011;8878;-33.370;-70.552;2022-10-30T13:14:03;0.27;;;0.27;;
17520;SDS011;8878;-33.370;-70.552;2022-10-30T13:16:40;0.10;;;0.10;;
17520;SDS011;8878;-33.370;-70.552;2022-10-30T13:19:10;0.20;;;0.20;;
17520;SDS011;8878;-33.370;-70.552;2022-10-30T13:21:46;0.20;;;0.20;;
17520;SDS011;8878;-33.370;-70.552;2022-10-30T13:24:21;0.43;;;0.43;;
17520;SDS011;8878;-33.370;-70.552;2022-10-30T13:26:55;2.33;;;0.60;;
17520;SDS011;8878;-33.370;-70.552;2022-10-30T13:29:30;0.33;;;0.33;;
17520;SDS011;8878;-33.370;-70.552;2022-10-30T13:32:21;0.20;;;0.20;;
17520;SDS011;8878;-33.370;-70.552;2022-10-30T13:34:58;0.40;;;0.40;;
17520;SDS011;8878;-33.370;-70.552;2022-10-30T13:37:39;1.67;;;0.70;;
17520;SDS011;8878;-33.370;-70.552;2022-10-30T13:40:16;0.50;;;0.50;;
17520;SDS011;8878;-33.370;-70.552;2022-10-30T13:42:59;0.47;;;0.47;;
17520;SDS011;8878;-33.370;-70.552;2022-10-30T13:45:44;0.60;;;0.30;;
17520;SDS011;8878;-33.370;-70.552;2022-10-30T13:48:26;0.50;;;0.50;;
17520;SDS011;8878;-33.370;-70.552;2022-10-30T13:54:09;0.20;;;0.20;;
17520;SDS011;8878;-33.370;-70.552;2022-10-30T13:56:45;0.17;;;0.17;;
17520;SDS011;8878;-33.370;-70.552;2022-10-30T13:59:21;0.23;;;0.23;;
17520;SDS011;8878;-33.370;-70.552;2022-10-30T14:02:04;0.30;;;0.30;;
17520;SDS011;8878;-33.370;-70.552;2022-10-30T14:04:46;0.40;;;0.40;;
17520;SDS011;8878;-33.370;-70.552;2022-10-30T14:07:23;1.40;;;1.20;;
17520;SDS011;8878;-33.370;-70.552;2022-10-30T14:10:01;0.17;;;0.17;;
17520;SDS011;8878;-33.370;-70.552;2022-10-30T14:12:49;0.93;;;0.83;;
17520;SDS011;8878;-33.370;-70.552;2022-10-30T14:15:26;0.60;;;0.40;;
17520;SDS011;8878;-33.370;-70.552;2022-10-30T14:24:21;8.33;;;0.60;;
17520;SDS011;8878;-33.370;-70.552;2022-10-30T14:26:56;0.30;;;0.30;;
17520;SDS011;8878;-33.370;-70.552;2022-10-30T14:29:41;0.40;;;0.40;;
17520;SDS011;8878;-33.370;-70.552;2022-10-30T14:32:33;0.70;;;0.70;;
17520;SDS011;8878;-33.370;-70.552;2022-10-30T14:44:09;0.33;;;0.33;;
17520;SDS011;8878;-33.370;-70.552;2022-10-30T14:47:05;0.70;;;0.70;;
17520;SDS011;8878;-33.370;-70.552;2022-10-30T14:49:56;0.50;;;0.50;;
17520;SDS011;8878;-33.370;-70.552;2022-10-30T14:52:32;1.30;;;0.53;;
17520;SDS011;8878;-33.370;-70.552;2022-10-30T14:55:24;0.30;;;0.30;;
17520;SDS011;8878;-33.370;-70.552;2022-10-30T14:58:13;0.30;;;0.30;;
17520;SDS011;8878;-33.370;-70.552;2022-10-30T15:00:48;1.23;;;0.83;;
17520;SDS011;8878;-33.370;-70.552;2022-10-30T15:03:31;2.33;;;0.50;;
17520;SDS011;8878;-33.370;-70.552;2022-10-30T15:06:16;0.53;;;0.43;;
17520;SDS011;8878;-33.370;-70.552;2022-10-30T15:08:55;2.13;;;1.27;;
17520;SDS011;8878;-33.370;-70.552;2022-10-30T15:11:48;0.53;;;0.53;;
17520;SDS011;8878;-33.370;-70.552;2022-10-30T15:14:38;0.50;;;0.50;;
17520;SDS011;8878;-33.370;-70.552;2022-10-30T15:17:21;1.77;;;1.47;;
17520;SDS011;8878;-33.370;-70.552;2022-10-30T15:19:55;0.20;;;0.20;;